KAZC

Colorado City Municipal Airport

Colorado City, Arizona, USA

KAZC 110855Z AUTO 00000KT 10SM CLR M06/M21 A3049 RMK AO2

Observed Flight Rules
Dec-11 @ 08:55 UTC (25 minutes ago) Visual Flight Rules
Wind Visibility Clouds
Calm 10 miles
  • Clear skies
Temperatures Readings
Current -6°C / 21°F
Dewpoint -21°C / -6°F
Humidity 30%
Altimeter 30.49" Hg
Pressure 1033 hPa
Elevation 1486
Observed Flight Rules
Dec-11 @ 08:55 UTC
(25 minutes ago)
VFR
Wind Visibility
Calm 10 miles
Clouds
  • Clear skies
Temperature Dewpoint
-6°C / 21°F -21°C / -6°F
Humidity Altimeter Pressure
30% 30.49" Hg 1033 hPa